sensor_id;sensor_type;location;lat;lon;timestamp;temperature;humidity
8485;DHT22;34555;49.34829940;8.43506100;2022-08-21T00:02:16;22.40;65.10
8485;DHT22;34555;49.34829940;8.43506100;2022-08-21T00:04:42;22.40;65.10
8485;DHT22;34555;49.34829940;8.43506100;2022-08-21T00:07:08;22.40;64.90
8485;DHT22;34555;49.34829940;8.43506100;2022-08-21T00:09:33;22.40;65.00
8485;DHT22;34555;49.34829940;8.43506100;2022-08-21T00:11:59;22.30;65.20
8485;DHT22;34555;49.34829940;8.43506100;2022-08-21T00:14:24;22.30;65.40
8485;DHT22;34555;49.34829940;8.43506100;2022-08-21T00:16:50;22.20;65.30
8485;DHT22;34555;49.34829940;8.43506100;2022-08-21T00:19:15;22.10;65.40
8485;DHT22;34555;49.34829940;8.43506100;2022-08-21T00:21:41;22.10;65.60
8485;DHT22;34555;49.34829940;8.43506100;2022-08-21T00:24:07;22.30;65.30
8485;DHT22;34555;49.34829940;8.43506100;2022-08-21T00:26:32;22.30;65.20
8485;DHT22;34555;49.34829940;8.43506100;2022-08-21T00:28:58;22.40;65.10
8485;DHT22;34555;49.34829940;8.43506100;2022-08-21T00:31:23;22.40;64.90
8485;DHT22;34555;49.34829940;8.43506100;2022-08-21T00:33:49;22.40;64.60
8485;DHT22;34555;49.34829940;8.43506100;2022-08-21T00:36:15;22.40;64.60
8485;DHT22;34555;49.34829940;8.43506100;2022-08-21T00:38:40;22.40;64.60
8485;DHT22;34555;49.34829940;8.43506100;2022-08-21T00:41:09;22.40;64.80
8485;DHT22;34555;49.34829940;8.43506100;2022-08-21T00:43:38;22.40;64.70
8485;DHT22;34555;49.34829940;8.43506100;2022-08-21T00:46:04;22.30;64.90
8485;DHT22;34555;49.34829940;8.43506100;2022-08-21T00:48:30;22.40;64.80
8485;DHT22;34555;49.34829940;8.43506100;2022-08-21T00:51:00;22.40;64.60
8485;DHT22;34555;49.34829940;8.43506100;2022-08-21T00:53:27;22.20;65.00
8485;DHT22;34555;49.34829940;8.43506100;2022-08-21T00:55:53;22.20;65.00
8485;DHT22;34555;49.34829940;8.43506100;2022-08-21T00:58:20;22.30;64.90
8485;DHT22;34555;49.34829940;8.43506100;2022-08-21T01:00:48;21.90;65.20
8485;DHT22;34555;49.34829940;8.43506100;2022-08-21T01:03:18;21.90;65.40
8485;DHT22;34555;49.34829940;8.43506100;2022-08-21T01:05:45;22.00;65.90
8485;DHT22;34555;49.34829940;8.43506100;2022-08-21T01:08:11;21.70;66.00
8485;DHT22;34555;49.34829940;8.43506100;2022-08-21T01:10:38;20.80;68.50
8485;DHT22;34555;49.34829940;8.43506100;2022-08-21T01:13:06;20.80;69.10
8485;DHT22;34555;49.34829940;8.43506100;2022-08-21T01:15:37;20.90;68.60
8485;DHT22;34555;49.34829940;8.43506100;2022-08-21T01:18:05;21.20;68.40
8485;DHT22;34555;49.34829940;8.43506100;2022-08-21T01:20:33;21.10;68.30
8485;DHT22;34555;49.34829940;8.43506100;2022-08-21T01:23:00;21.10;68.00
8485;DHT22;34555;49.34829940;8.43506100;2022-08-21T01:25:25;21.10;68.30
8485;DHT22;34555;49.34829940;8.43506100;2022-08-21T01:27:51;20.80;69.00
8485;DHT22;34555;49.34829940;8.43506100;2022-08-21T01:30:23;21.30;68.10
8485;DHT22;34555;49.34829940;8.43506100;2022-08-21T01:32:49;21.30;67.90
8485;DHT22;34555;49.34829940;8.43506100;2022-08-21T01:35:17;21.30;67.30
8485;DHT22;34555;49.34829940;8.43506100;2022-08-21T01:37:45;21.20;67.70
8485;DHT22;34555;49.34829940;8.43506100;2022-08-21T01:40:13;21.60;67.10
8485;DHT22;34555;49.34829940;8.43506100;2022-08-21T01:42:39;21.60;66.70
8485;DHT22;34555;49.34829940;8.43506100;2022-08-21T01:45:06;21.30;67.20
8485;DHT22;34555;49.34829940;8.43506100;2022-08-21T01:47:32;21.40;67.30
8485;DHT22;34555;49.34829940;8.43506100;2022-08-21T01:49:58;20.80;68.20
8485;DHT22;34555;49.34829940;8.43506100;2022-08-21T01:52:25;21.10;68.30
8485;DHT22;34555;49.34829940;8.43506100;2022-08-21T01:54:50;21.00;67.90
8485;DHT22;34555;49.34829940;8.43506100;2022-08-21T01:57:16;21.20;68.10
8485;DHT22;34555;49.34829940;8.43506100;2022-08-21T01:59:42;21.50;67.20
8485;DHT22;34555;49.34829940;8.43506100;2022-08-21T02:02:07;21.20;67.20
8485;DHT22;34555;49.34829940;8.43506100;2022-08-21T02:04:33;21.40;67.50
8485;DHT22;34555;49.34829940;8.43506100;2022-08-21T02:07:00;21.50;67.20
8485;DHT22;34555;49.34829940;8.43506100;2022-08-21T02:09:25;20.90;68.40
8485;DHT22;34555;49.34829940;8.43506100;2022-08-21T02:11:51;20.30;69.40
8485;DHT22;34555;49.34829940;8.43506100;2022-08-21T02:14:17;20.50;69.90
8485;DHT22;34555;49.34829940;8.43506100;2022-08-21T02:16:44;21.20;68.60
8485;DHT22;34555;49.34829940;8.43506100;2022-08-21T02:19:11;21.40;67.50
8485;DHT22;34555;49.34829940;8.43506100;2022-08-21T02:21:37;21.50;67.30
8485;DHT22;34555;49.34829940;8.43506100;2022-08-21T02:24:04;21.50;67.40
8485;DHT22;34555;49.34829940;8.43506100;2022-08-21T02:26:30;20.70;68.50
8485;DHT22;34555;49.34829940;8.43506100;2022-08-21T02:28:55;21.00;68.70
8485;DHT22;34555;49.34829940;8.43506100;2022-08-21T02:31:21;21.10;68.50
8485;DHT22;34555;49.34829940;8.43506100;2022-08-21T02:33:46;21.30;68.20
8485;DHT22;34555;49.34829940;8.43506100;2022-08-21T02:36:12;21.20;68.10
8485;DHT22;34555;49.34829940;8.43506100;2022-08-21T02:38:40;21.20;68.20
8485;DHT22;34555;49.34829940;8.43506100;2022-08-21T02:41:08;21.30;67.90
8485;DHT22;34555;49.34829940;8.43506100;2022-08-21T02:43:35;21.00;68.40
8485;DHT22;34555;49.34829940;8.43506100;2022-08-21T02:46:02;20.50;69.80
8485;DHT22;34555;49.34829940;8.43506100;2022-08-21T02:48:30;19.70;72.20
8485;DHT22;34555;49.34829940;8.43506100;2022-08-21T02:50:58;20.10;71.70
8485;DHT22;34555;49.34829940;8.43506100;2022-08-21T02:53:25;20.70;70.40
8485;DHT22;34555;49.34829940;8.43506100;2022-08-21T02:55:52;20.80;69.80
8485;DHT22;34555;49.34829940;8.43506100;2022-08-21T02:58:20;20.20;70.60
8485;DHT22;34555;49.34829940;8.43506100;2022-08-21T03:00:46;20.10;71.30
8485;DHT22;34555;49.34829940;8.43506100;2022-08-21T03:03:12;20.30;70.90
8485;DHT22;34555;49.34829940;8.43506100;2022-08-21T03:05:38;20.60;70.60
8485;DHT22;34555;49.34829940;8.43506100;2022-08-21T03:08:06;20.80;70.20
8485;DHT22;34555;49.34829940;8.43506100;2022-08-21T03:10:37;20.80;70.00
8485;DHT22;34555;49.34829940;8.43506100;2022-08-21T03:13:03;20.60;70.30
8485;DHT22;34555;49.34829940;8.43506100;2022-08-21T03:15:29;20.60;70.50
8485;DHT22;34555;49.34829940;8.43506100;2022-08-21T03:17:55;20.40;70.90
8485;DHT22;34555;49.34829940;8.43506100;2022-08-21T03:20:23;20.70;70.40
8485;DHT22;34555;49.34829940;8.43506100;2022-08-21T03:22:49;20.80;69.90
8485;DHT22;34555;49.34829940;8.43506100;2022-08-21T03:25:15;19.70;72.10
8485;DHT22;34555;49.34829940;8.43506100;2022-08-21T03:27:41;19.50;73.60
8485;DHT22;34555;49.34829940;8.43506100;2022-08-21T03:30:07;19.60;73.60
8485;DHT22;34555;49.34829940;8.43506100;2022-08-21T03:32:33;20.20;72.30
8485;DHT22;34555;49.34829940;8.43506100;2022-08-21T03:34:59;19.90;71.50
8485;DHT22;34555;49.34829940;8.43506100;2022-08-21T03:37:26;19.20;73.80
8485;DHT22;34555;49.34829940;8.43506100;2022-08-21T03:39:52;19.00;75.50
8485;DHT22;34555;49.34829940;8.43506100;2022-08-21T03:42:17;19.30;75.60
8485;DHT22;34555;49.34829940;8.43506100;2022-08-21T03:44:43;19.70;73.70
8485;DHT22;34555;49.34829940;8.43506100;2022-08-21T03:47:08;19.40;73.90
8485;DHT22;34555;49.34829940;8.43506100;2022-08-21T03:49:35;19.60;74.20
8485;DHT22;34555;49.34829940;8.43506100;2022-08-21T03:52:02;19.10;75.60
8485;DHT22;34555;49.34829940;8.43506100;2022-08-21T03:54:28;18.70;77.00
8485;DHT22;34555;49.34829940;8.43506100;2022-08-21T03:56:54;19.40;75.70
8485;DHT22;34555;49.34829940;8.43506100;2022-08-21T03:59:20;19.60;74.30
8485;DHT22;34555;49.34829940;8.43506100;2022-08-21T04:01:54;19.60;74.10
8485;DHT22;34555;49.34829940;8.43506100;2022-08-21T04:04:20;19.40;75.00
8485;DHT22;34555;49.34829940;8.43506100;2022-08-21T04:06:45;19.60;74.90
8485;DHT22;34555;49.34829940;8.43506100;2022-08-21T04:09:11;18.80;76.50
8485;DHT22;34555;49.34829940;8.43506100;2022-08-21T04:11:37;19.00;77.00
8485;DHT22;34555;49.34829940;8.43506100;2022-08-21T04:14:02;19.40;75.90
8485;DHT22;34555;49.34829940;8.43506100;2022-08-21T04:16:28;18.70;77.60
8485;DHT22;34555;49.34829940;8.43506100;2022-08-21T04:18:53;19.30;77.00
8485;DHT22;34555;49.34829940;8.43506100;2022-08-21T04:21:19;19.70;74.90
8485;DHT22;34555;49.34829940;8.43506100;2022-08-21T04:23:45;19.40;75.60
8485;DHT22;34555;49.34829940;8.43506100;2022-08-21T04:26:10;19.80;75.00
8485;DHT22;34555;49.34829940;8.43506100;2022-08-21T04:28:36;19.90;74.40
8485;DHT22;34555;49.34829940;8.43506100;2022-08-21T04:31:01;20.00;75.00
8485;DHT22;34555;49.34829940;8.43506100;2022-08-21T04:33:27;20.20;73.70
8485;DHT22;34555;49.34829940;8.43506100;2022-08-21T04:35:53;20.00;73.60
8485;DHT22;34555;49.34829940;8.43506100;2022-08-21T04:38:18;19.40;75.50
8485;DHT22;34555;49.34829940;8.43506100;2022-08-21T04:40:44;18.80;77.30
8485;DHT22;34555;49.34829940;8.43506100;2022-08-21T04:43:10;18.90;78.30
8485;DHT22;34555;49.34829940;8.43506100;2022-08-21T04:45:42;19.00;77.70
8485;DHT22;34555;49.34829940;8.43506100;2022-08-21T04:48:11;19.50;76.10
8485;DHT22;34555;49.34829940;8.43506100;2022-08-21T04:50:44;19.30;77.20
8485;DHT22;34555;49.34829940;8.43506100;2022-08-21T04:53:18;19.30;77.10
8485;DHT22;34555;49.34829940;8.43506100;2022-08-21T04:55:44;19.60;76.10
8485;DHT22;34555;49.34829940;8.43506100;2022-08-21T04:58:13;19.10;77.10
8485;DHT22;34555;49.34829940;8.43506100;2022-08-21T05:00:40;18.80;78.30
8485;DHT22;34555;49.34829940;8.43506100;2022-08-21T05:03:07;18.70;79.40
8485;DHT22;34555;49.34829940;8.43506100;2022-08-21T05:05:35;18.70;79.20
8485;DHT22;34555;49.34829940;8.43506100;2022-08-21T05:08:02;18.40;80.40
8485;DHT22;34555;49.34829940;8.43506100;2022-08-21T05:10:28;19.00;79.40
8485;DHT22;34555;49.34829940;8.43506100;2022-08-21T05:12:54;18.80;79.30
8485;DHT22;34555;49.34829940;8.43506100;2022-08-21T05:15:21;18.90;79.90
8485;DHT22;34555;49.34829940;8.43506100;2022-08-21T05:17:46;19.20;80.00
8485;DHT22;34555;49.34829940;8.43506100;2022-08-21T05:20:13;19.30;78.70
8485;DHT22;34555;49.34829940;8.43506100;2022-08-21T05:22:39;19.20;79.00
8485;DHT22;34555;49.34829940;8.43506100;2022-08-21T05:25:06;18.90;80.10
8485;DHT22;34555;49.34829940;8.43506100;2022-08-21T05:27:31;18.90;80.80
8485;DHT22;34555;49.34829940;8.43506100;2022-08-21T05:29:57;19.20;80.30
8485;DHT22;34555;49.34829940;8.43506100;2022-08-21T05:32:23;19.20;80.70
8485;DHT22;34555;49.34829940;8.43506100;2022-08-21T05:34:49;19.50;79.50
8485;DHT22;34555;49.34829940;8.43506100;2022-08-21T05:37:15;19.50;79.20
8485;DHT22;34555;49.34829940;8.43506100;2022-08-21T05:39:40;19.70;78.90
8485;DHT22;34555;49.34829940;8.43506100;2022-08-21T05:42:06;19.70;78.50
8485;DHT22;34555;49.34829940;8.43506100;2022-08-21T05:44:31;19.50;79.70
8485;DHT22;34555;49.34829940;8.43506100;2022-08-21T05:47:08;19.70;79.10
8485;DHT22;34555;49.34829940;8.43506100;2022-08-21T05:49:34;19.70;79.10
8485;DHT22;34555;49.34829940;8.43506100;2022-08-21T05:52:00;19.70;79.10
8485;DHT22;34555;49.34829940;8.43506100;2022-08-21T05:54:26;19.90;78.40
8485;DHT22;34555;49.34829940;8.43506100;2022-08-21T05:56:52;19.90;78.10
8485;DHT22;34555;49.34829940;8.43506100;2022-08-21T05:59:18;20.10;77.80
8485;DHT22;34555;49.34829940;8.43506100;2022-08-21T06:01:44;20.10;77.50
8485;DHT22;34555;49.34829940;8.43506100;2022-08-21T06:04:10;20.10;77.30
8485;DHT22;34555;49.34829940;8.43506100;2022-08-21T06:06:36;20.10;77.30
8485;DHT22;34555;49.34829940;8.43506100;2022-08-21T06:09:02;20.20;77.20
8485;DHT22;34555;49.34829940;8.43506100;2022-08-21T06:11:29;20.30;76.70
8485;DHT22;34555;49.34829940;8.43506100;2022-08-21T06:13:55;20.40;76.30
8485;DHT22;34555;49.34829940;8.43506100;2022-08-21T06:16:21;20.50;75.90
8485;DHT22;34555;49.34829940;8.43506100;2022-08-21T06:18:48;20.50;75.90
8485;DHT22;34555;49.34829940;8.43506100;2022-08-21T06:21:13;20.50;76.00
8485;DHT22;34555;49.34829940;8.43506100;2022-08-21T06:23:40;20.60;75.70
8485;DHT22;34555;49.34829940;8.43506100;2022-08-21T06:26:06;20.70;75.30
8485;DHT22;34555;49.34829940;8.43506100;2022-08-21T06:28:33;20.60;75.80
8485;DHT22;34555;49.34829940;8.43506100;2022-08-21T06:30:59;20.60;75.70
8485;DHT22;34555;49.34829940;8.43506100;2022-08-21T06:33:24;20.70;75.60
8485;DHT22;34555;49.34829940;8.43506100;2022-08-21T06:35:50;20.70;75.20
8485;DHT22;34555;49.34829940;8.43506100;2022-08-21T06:38:16;20.80;75.30
8485;DHT22;34555;49.34829940;8.43506100;2022-08-21T06:40:41;20.80;75.30
8485;DHT22;34555;49.34829940;8.43506100;2022-08-21T06:43:10;20.90;75.40
8485;DHT22;34555;49.34829940;8.43506100;2022-08-21T06:45:37;20.80;75.40
8485;DHT22;34555;49.34829940;8.43506100;2022-08-21T06:48:02;20.70;75.80
8485;DHT22;34555;49.34829940;8.43506100;2022-08-21T06:50:29;20.80;75.70
8485;DHT22;34555;49.34829940;8.43506100;2022-08-21T06:53:11;20.80;75.70
8485;DHT22;34555;49.34829940;8.43506100;2022-08-21T06:55:38;20.80;75.30
8485;DHT22;34555;49.34829940;8.43506100;2022-08-21T06:58:04;20.90;75.00
8485;DHT22;34555;49.34829940;8.43506100;2022-08-21T07:00:31;21.00;74.50
8485;DHT22;34555;49.34829940;8.43506100;2022-08-21T07:02:57;21.00;74.10
8485;DHT22;34555;49.34829940;8.43506100;2022-08-21T07:05:26;21.10;73.80
8485;DHT22;34555;49.34829940;8.43506100;2022-08-21T07:07:52;21.10;73.30
8485;DHT22;34555;49.34829940;8.43506100;2022-08-21T07:10:17;21.20;72.70
8485;DHT22;34555;49.34829940;8.43506100;2022-08-21T07:12:43;21.20;72.10
8485;DHT22;34555;49.34829940;8.43506100;2022-08-21T07:15:09;21.30;71.60
8485;DHT22;34555;49.34829940;8.43506100;2022-08-21T07:17:35;21.10;71.20
8485;DHT22;34555;49.34829940;8.43506100;2022-08-21T07:20:01;21.00;70.80
8485;DHT22;34555;49.34829940;8.43506100;2022-08-21T07:22:26;21.10;70.80
8485;DHT22;34555;49.34829940;8.43506100;2022-08-21T07:24:53;21.10;70.40
8485;DHT22;34555;49.34829940;8.43506100;2022-08-21T07:27:19;21.10;70.10
8485;DHT22;34555;49.34829940;8.43506100;2022-08-21T07:29:44;21.20;70.00
8485;DHT22;34555;49.34829940;8.43506100;2022-08-21T07:32:10;21.30;69.80
8485;DHT22;34555;49.34829940;8.43506100;2022-08-21T07:34:35;21.40;69.60
8485;DHT22;34555;49.34829940;8.43506100;2022-08-21T07:37:01;21.50;69.30
8485;DHT22;34555;49.34829940;8.43506100;2022-08-21T07:39:27;21.70;69.30
8485;DHT22;34555;49.34829940;8.43506100;2022-08-21T07:41:52;21.80;69.20
8485;DHT22;34555;49.34829940;8.43506100;2022-08-21T07:44:18;21.80;68.90
8485;DHT22;34555;49.34829940;8.43506100;2022-08-21T07:46:43;21.90;69.10
8485;DHT22;34555;49.34829940;8.43506100;2022-08-21T07:49:09;21.80;69.00
8485;DHT22;34555;49.34829940;8.43506100;2022-08-21T07:51:34;21.90;69.50
8485;DHT22;34555;49.34829940;8.43506100;2022-08-21T07:54:00;22.00;69.20
8485;DHT22;34555;49.34829940;8.43506100;2022-08-21T07:56:27;22.10;69.60
8485;DHT22;34555;49.34829940;8.43506100;2022-08-21T07:58:53;22.10;69.60
8485;DHT22;34555;49.34829940;8.43506100;2022-08-21T08:01:19;22.10;69.40
8485;DHT22;34555;49.34829940;8.43506100;2022-08-21T08:03:45;22.10;69.70
8485;DHT22;34555;49.34829940;8.43506100;2022-08-21T08:06:11;22.10;69.50
8485;DHT22;34555;49.34829940;8.43506100;2022-08-21T08:08:38;22.20;69.50
8485;DHT22;34555;49.34829940;8.43506100;2022-08-21T08:11:05;22.20;69.40
8485;DHT22;34555;49.34829940;8.43506100;2022-08-21T08:13:30;22.20;69.40
8485;DHT22;34555;49.34829940;8.43506100;2022-08-21T08:15:56;22.20;69.30
8485;DHT22;34555;49.34829940;8.43506100;2022-08-21T08:18:21;22.20;69.40
8485;DHT22;34555;49.34829940;8.43506100;2022-08-21T08:20:47;22.20;69.20
8485;DHT22;34555;49.34829940;8.43506100;2022-08-21T08:23:13;22.30;69.50
8485;DHT22;34555;49.34829940;8.43506100;2022-08-21T08:25:39;22.30;69.40
8485;DHT22;34555;49.34829940;8.43506100;2022-08-21T08:28:05;22.40;69.60
8485;DHT22;34555;49.34829940;8.43506100;2022-08-21T08:30:31;22.40;69.60
8485;DHT22;34555;49.34829940;8.43506100;2022-08-21T08:32:56;22.40;69.30
8485;DHT22;34555;49.34829940;8.43506100;2022-08-21T08:35:23;22.40;69.30
8485;DHT22;34555;49.34829940;8.43506100;2022-08-21T08:37:48;22.40;69.30
8485;DHT22;34555;49.34829940;8.43506100;2022-08-21T08:43:31;22.50;69.40
8485;DHT22;34555;49.34829940;8.43506100;2022-08-21T08:46:03;22.50;69.30
8485;DHT22;34555;49.34829940;8.43506100;2022-08-21T08:49:02;22.60;69.30
8485;DHT22;34555;49.34829940;8.43506100;2022-08-21T08:54:24;22.60;69.20
8485;DHT22;34555;49.34829940;8.43506100;2022-08-21T08:56:51;22.70;69.60
8485;DHT22;34555;49.34829940;8.43506100;2022-08-21T08:59:26;22.70;69.10
8485;DHT22;34555;49.34829940;8.43506100;2022-08-21T09:01:52;22.70;69.10
8485;DHT22;34555;49.34829940;8.43506100;2022-08-21T09:04:24;22.70;69.10
8485;DHT22;34555;49.34829940;8.43506100;2022-08-21T09:29:14;22.90;68.80
8485;DHT22;34555;49.34829940;8.43506100;2022-08-21T09:31:42;22.90;68.70
8485;DHT22;34555;49.34829940;8.43506100;2022-08-21T09:34:11;22.90;68.70
8485;DHT22;34555;49.34829940;8.43506100;2022-08-21T09:36:45;23.00;68.70
8485;DHT22;34555;49.34829940;8.43506100;2022-08-21T09:39:12;23.00;68.70
8485;DHT22;34555;49.34829940;8.43506100;2022-08-21T09:41:39;23.00;68.70
8485;DHT22;34555;49.34829940;8.43506100;2022-08-21T09:44:07;23.00;68.60
8485;DHT22;34555;49.34829940;8.43506100;2022-08-21T09:46:33;23.00;68.60
8485;DHT22;34555;49.34829940;8.43506100;2022-08-21T09:49:01;23.00;68.60
8485;DHT22;34555;49.34829940;8.43506100;2022-08-21T09:51:32;23.10;68.70
8485;DHT22;34555;49.34829940;8.43506100;2022-08-21T09:56:39;23.20;68.60
8485;DHT22;34555;49.34829940;8.43506100;2022-08-21T09:59:34;23.20;68.60
8485;DHT22;34555;49.34829940;8.43506100;2022-08-21T10:02:03;23.20;68.60
8485;DHT22;34555;49.34829940;8.43506100;2022-08-21T10:04:39;23.20;68.50
8485;DHT22;34555;49.34829940;8.43506100;2022-08-21T10:07:12;23.30;69.20
8485;DHT22;34555;49.34829940;8.43506100;2022-08-21T10:09:38;23.30;71.00
8485;DHT22;34555;49.34829940;8.43506100;2022-08-21T10:12:20;23.40;71.40
8485;DHT22;34555;49.34829940;8.43506100;2022-08-21T10:20:47;23.50;71.70
8485;DHT22;34555;49.34829940;8.43506100;2022-08-21T10:26:33;23.50;71.40
8485;DHT22;34555;49.34829940;8.43506100;2022-08-21T10:29:22;23.50;71.40
8485;DHT22;34555;49.34829940;8.43506100;2022-08-21T10:34:37;23.60;72.10
8485;DHT22;34555;49.34829940;8.43506100;2022-08-21T10:40:24;23.70;71.40
8485;DHT22;34555;49.34829940;8.43506100;2022-08-21T10:43:08;23.70;71.70
8485;DHT22;34555;49.34829940;8.43506100;2022-08-21T10:48:07;23.70;71.00
8485;DHT22;34555;49.34829940;8.43506100;2022-08-21T10:50:49;23.70;70.70
8485;DHT22;34555;49.34829940;8.43506100;2022-08-21T10:56:15;23.70;70.90
8485;DHT22;34555;49.34829940;8.43506100;2022-08-21T11:06:47;23.60;70.80
8485;DHT22;34555;49.34829940;8.43506100;2022-08-21T11:09:18;23.60;70.80
8485;DHT22;34555;49.34829940;8.43506100;2022-08-21T11:11:52;23.60;70.70
8485;DHT22;34555;49.34829940;8.43506100;2022-08-21T11:14:32;23.60;70.60
8485;DHT22;34555;49.34829940;8.43506100;2022-08-21T11:17:09;23.60;70.50
8485;DHT22;34555;49.34829940;8.43506100;2022-08-21T11:19:54;23.60;70.50
8485;DHT22;34555;49.34829940;8.43506100;2022-08-21T11:22:33;23.60;70.40
8485;DHT22;34555;49.34829940;8.43506100;2022-08-21T11:25:35;23.70;70.40
8485;DHT22;34555;49.34829940;8.43506100;2022-08-21T11:28:07;23.70;70.30
8485;DHT22;34555;49.34829940;8.43506100;2022-08-21T11:34:43;23.70;70.20
8485;DHT22;34555;49.34829940;8.43506100;2022-08-21T11:39:27;23.70;70.00
8485;DHT22;34555;49.34829940;8.43506100;2022-08-21T11:42:24;23.70;70.00
8485;DHT22;34555;49.34829940;8.43506100;2022-08-21T11:50:31;23.70;69.70
8485;DHT22;34555;49.34829940;8.43506100;2022-08-21T11:55:53;23.70;69.60
8485;DHT22;34555;49.34829940;8.43506100;2022-08-21T11:58:36;23.70;69.50
8485;DHT22;34555;49.34829940;8.43506100;2022-08-21T12:01:22;23.70;69.50
8485;DHT22;34555;49.34829940;8.43506100;2022-08-21T12:04:19;23.80;69.60
8485;DHT22;34555;49.34829940;8.43506100;2022-08-21T12:06:47;23.80;69.60
8485;DHT22;34555;49.34829940;8.43506100;2022-08-21T12:12:04;23.80;69.40
8485;DHT22;34555;49.34829940;8.43506100;2022-08-21T12:14:47;23.80;69.40
8485;DHT22;34555;49.34829940;8.43506100;2022-08-21T12:17:20;23.80;69.30
8485;DHT22;34555;49.34829940;8.43506100;2022-08-21T12:20:00;23.80;69.20
8485;DHT22;34555;49.34829940;8.43506100;2022-08-21T12:22:40;23.80;69.20
8485;DHT22;34555;49.34829940;8.43506100;2022-08-21T12:25:08;23.80;69.20
8485;DHT22;34555;49.34829940;8.43506100;2022-08-21T12:27:47;23.90;69.20
8485;DHT22;34555;49.34829940;8.43506100;2022-08-21T12:32:58;23.90;69.10
8485;DHT22;34555;49.34829940;8.43506100;2022-08-21T12:35:38;23.90;69.00
8485;DHT22;34555;49.34829940;8.43506100;2022-08-21T12:38:28;23.90;69.00
8485;DHT22;34555;49.34829940;8.43506100;2022-08-21T12:40:59;23.90;68.90
8485;DHT22;34555;49.34829940;8.43506100;2022-08-21T12:43:38;23.90;68.90
8485;DHT22;34555;49.34829940;8.43506100;2022-08-21T12:46:06;23.90;68.70
8485;DHT22;34555;49.34829940;8.43506100;2022-08-21T12:48:51;23.90;68.70
8485;DHT22;34555;49.34829940;8.43506100;2022-08-21T12:51:28;23.90;68.70
8485;DHT22;34555;49.34829940;8.43506100;2022-08-21T12:53:56;24.00;68.50
8485;DHT22;34555;49.34829940;8.43506100;2022-08-21T12:56:26;24.00;68.60
8485;DHT22;34555;49.34829940;8.43506100;2022-08-21T12:59:05;24.00;68.40
8485;DHT22;34555;49.34829940;8.43506100;2022-08-21T13:01:38;24.00;68.30
8485;DHT22;34555;49.34829940;8.43506100;2022-08-21T13:04:10;24.00;68.30
8485;DHT22;34555;49.34829940;8.43506100;2022-08-21T13:06:45;24.10;68.40
8485;DHT22;34555;49.34829940;8.43506100;2022-08-21T13:09:14;24.00;68.30
8485;DHT22;34555;49.34829940;8.43506100;2022-08-21T13:11:43;24.10;68.40
8485;DHT22;34555;49.34829940;8.43506100;2022-08-21T13:14:23;24.10;68.40
8485;DHT22;34555;49.34829940;8.43506100;2022-08-21T13:16:56;24.10;68.40
8485;DHT22;34555;49.34829940;8.43506100;2022-08-21T13:19:22;24.10;68.30
8485;DHT22;34555;49.34829940;8.43506100;2022-08-21T13:21:49;24.20;68.40
8485;DHT22;34555;49.34829940;8.43506100;2022-08-21T13:24:25;24.20;68.40
8485;DHT22;34555;49.34829940;8.43506100;2022-08-21T13:26:54;24.20;68.30
8485;DHT22;34555;49.34829940;8.43506100;2022-08-21T13:29:23;24.20;68.20
8485;DHT22;34555;49.34829940;8.43506100;2022-08-21T13:31:55;24.20;68.10
8485;DHT22;34555;49.34829940;8.43506100;2022-08-21T13:34:23;24.20;68.00
8485;DHT22;34555;49.34829940;8.43506100;2022-08-21T13:36:52;24.30;68.10
8485;DHT22;34555;49.34829940;8.43506100;2022-08-21T13:39:20;24.30;67.90
8485;DHT22;34555;49.34829940;8.43506100;2022-08-21T13:41:49;24.30;67.90
8485;DHT22;34555;49.34829940;8.43506100;2022-08-21T13:44:20;24.30;67.90
8485;DHT22;34555;49.34829940;8.43506100;2022-08-21T13:46:48;24.30;67.90
8485;DHT22;34555;49.34829940;8.43506100;2022-08-21T13:49:17;24.30;67.80
8485;DHT22;34555;49.34829940;8.43506100;2022-08-21T13:51:43;24.30;67.70
8485;DHT22;34555;49.34829940;8.43506100;2022-08-21T13:54:23;24.30;67.70
8485;DHT22;34555;49.34829940;8.43506100;2022-08-21T13:56:51;24.30;67.70
8485;DHT22;34555;49.34829940;8.43506100;2022-08-21T13:59:31;24.30;67.70
8485;DHT22;34555;49.34829940;8.43506100;2022-08-21T14:02:10;24.30;67.70
8485;DHT22;34555;49.34829940;8.43506100;2022-08-21T14:04:58;24.30;67.60
8485;DHT22;34555;49.34829940;8.43506100;2022-08-21T14:07:45;24.30;67.60
8485;DHT22;34555;49.34829940;8.43506100;2022-08-21T14:10:18;24.30;67.60
8485;DHT22;34555;49.34829940;8.43506100;2022-08-21T14:12:49;24.40;67.60
8485;DHT22;34555;49.34829940;8.43506100;2022-08-21T14:15:18;24.40;67.50
8485;DHT22;34555;49.34829940;8.43506100;2022-08-21T14:17:45;24.60;67.30
8485;DHT22;34555;49.34829940;8.43506100;2022-08-21T14:20:27;24.70;66.00
8485;DHT22;34555;49.34829940;8.43506100;2022-08-21T14:22:53;24.70;65.60
8485;DHT22;34555;49.34829940;8.43506100;2022-08-21T14:32:46;25.00;65.10
8485;DHT22;34555;49.34829940;8.43506100;2022-08-21T14:35:12;25.00;65.00
8485;DHT22;34555;49.34829940;8.43506100;2022-08-21T14:37:41;25.10;64.90
8485;DHT22;34555;49.34829940;8.43506100;2022-08-21T14:40:08;25.20;64.70
8485;DHT22;34555;49.34829940;8.43506100;2022-08-21T14:42:34;25.30;64.60
8485;DHT22;34555;49.34829940;8.43506100;2022-08-21T14:45:02;25.40;64.40
8485;DHT22;34555;49.34829940;8.43506100;2022-08-21T14:47:30;25.40;64.30
8485;DHT22;34555;49.34829940;8.43506100;2022-08-21T14:49:56;25.40;64.40
8485;DHT22;34555;49.34829940;8.43506100;2022-08-21T14:52:21;25.30;64.50
8485;DHT22;34555;49.34829940;8.43506100;2022-08-21T14:54:49;25.30;64.50
8485;DHT22;34555;49.34829940;8.43506100;2022-08-21T14:57:14;25.30;64.50
8485;DHT22;34555;49.34829940;8.43506100;2022-08-21T14:59:40;25.30;64.60
8485;DHT22;34555;49.34829940;8.43506100;2022-08-21T15:02:07;25.20;64.60
8485;DHT22;34555;49.34829940;8.43506100;2022-08-21T15:04:34;25.20;64.70
8485;DHT22;34555;49.34829940;8.43506100;2022-08-21T15:07:00;25.20;64.80
8485;DHT22;34555;49.34829940;8.43506100;2022-08-21T15:09:26;25.10;64.80
8485;DHT22;34555;49.34829940;8.43506100;2022-08-21T15:11:57;25.10;64.90